createdAt,value
2022-10-01T00:01:01.205Z,5.70
2022-10-01T00:03:29.606Z,7.30
2022-10-01T00:06:00.535Z,11.27
2022-10-01T00:08:28.435Z,7.78
2022-10-01T00:10:55.911Z,6.53
2022-10-01T00:13:23.703Z,9.85
2022-10-01T00:15:51.216Z,13.43
2022-10-01T00:18:18.554Z,11.95
2022-10-01T00:20:45.908Z,6.10
2022-10-01T00:23:13.999Z,7.28
2022-10-01T00:25:41.355Z,6.78
2022-10-01T00:28:08.792Z,5.22
2022-10-01T00:30:40.149Z,8.13
2022-10-01T00:33:07.775Z,7.22
2022-10-01T00:35:35.123Z,6.70
2022-10-01T00:38:02.434Z,5.93
2022-10-01T00:40:29.783Z,5.45
2022-10-01T00:42:57.074Z,5.47
2022-10-01T00:45:24.410Z,5.55
2022-10-01T00:47:53.974Z,5.03
2022-10-01T00:50:26.043Z,7.25
2022-10-01T00:52:55.605Z,7.78
2022-10-01T00:55:27.754Z,11.15
2022-10-01T00:57:55.611Z,6.70
2022-10-01T01:00:23.431Z,6.78
2022-10-01T01:02:50.984Z,5.65
2022-10-01T01:05:18.837Z,4.63
2022-10-01T01:07:47.944Z,5.88
2022-10-01T01:10:17.003Z,4.57
2022-10-01T01:12:56.647Z,4.60
2022-10-01T01:15:37.251Z,6.13
2022-10-01T01:18:14.491Z,4.60
2022-10-01T01:20:53.743Z,4.43
2022-10-01T01:23:37.817Z,5.70
2022-10-01T01:26:38.758Z,5.25
2022-10-01T01:29:08.534Z,5.65
2022-10-01T01:31:38.313Z,4.85
2022-10-01T01:34:12.321Z,6.75
2022-10-01T01:36:43.680Z,5.75
2022-10-01T01:39:12.559Z,5.22
2022-10-01T01:41:43.934Z,4.35
2022-10-01T01:44:13.261Z,6.20
2022-10-01T01:46:42.595Z,3.95
2022-10-01T01:49:10.002Z,6.10
2022-10-01T01:51:50.678Z,4.93
2022-10-01T01:54:18.767Z,5.75
2022-10-01T01:56:46.453Z,4.82
2022-10-01T01:59:16.293Z,5.40
2022-10-01T02:01:44.561Z,4.43
2022-10-01T02:04:18.137Z,6.13
2022-10-01T02:06:57.856Z,5.30
2022-10-01T02:09:29.706Z,5.90
2022-10-01T02:12:07.597Z,5.43
2022-10-01T02:14:39.562Z,4.63
2022-10-01T02:17:16.586Z,6.47
2022-10-01T02:19:57.178Z,3.92
2022-10-01T02:22:27.519Z,4.05
2022-10-01T02:24:57.228Z,3.63
2022-10-01T02:27:32.511Z,3.75
2022-10-01T02:30:01.329Z,3.78
2022-10-01T02:32:30.634Z,4.35
2022-10-01T02:34:58.222Z,3.78
2022-10-01T02:37:26.868Z,5.50
2022-10-01T02:39:55.416Z,4.57
2022-10-01T02:42:24.493Z,4.88
2022-10-01T02:44:52.931Z,4.05
2022-10-01T02:47:49.699Z,4.10
2022-10-01T02:50:17.088Z,4.10
2022-10-01T02:52:50.347Z,5.35
2022-10-01T02:55:19.828Z,4.38
2022-10-01T02:57:47.291Z,4.05
2022-10-01T03:00:16.313Z,4.22
2022-10-01T03:02:43.790Z,4.10
2022-10-01T03:05:11.356Z,4.15
2022-10-01T03:07:40.094Z,5.45
2022-10-01T03:10:08.436Z,4.03
2022-10-01T03:12:36.543Z,4.30
2022-10-01T03:15:04.871Z,4.15
2022-10-01T03:17:32.461Z,4.85
2022-10-01T03:20:00.011Z,5.70
2022-10-01T03:22:27.683Z,4.93
2022-10-01T03:24:55.340Z,4.70
2022-10-01T03:27:23.230Z,4.10
2022-10-01T03:29:50.849Z,4.15
2022-10-01T03:32:18.443Z,3.80
2022-10-01T03:34:45.912Z,4.68
2022-10-01T03:37:13.371Z,4.60
2022-10-01T03:39:40.807Z,4.57
2022-10-01T03:42:08.315Z,3.33
2022-10-01T03:44:35.834Z,4.10
2022-10-01T03:47:03.493Z,4.85
2022-10-01T03:49:31.016Z,4.25
2022-10-01T03:51:59.228Z,4.38
2022-10-01T03:54:27.628Z,4.45
2022-10-01T03:56:55.063Z,4.03
2022-10-01T03:59:22.604Z,4.70
2022-10-01T04:01:50.386Z,6.88
2022-10-01T04:04:18.056Z,4.75
2022-10-01T04:06:45.454Z,5.65
2022-10-01T04:09:12.928Z,8.23
2022-10-01T04:11:40.369Z,8.02
2022-10-01T04:14:08.763Z,7.80
2022-10-01T04:16:36.478Z,9.25
2022-10-01T04:19:04.903Z,10.77
2022-10-01T04:21:32.817Z,9.27
2022-10-01T04:24:01.101Z,9.80
2022-10-01T04:26:28.589Z,9.88
2022-10-01T04:28:56.041Z,9.77
2022-10-01T04:31:26.916Z,9.75
2022-10-01T04:33:55.884Z,8.80
2022-10-01T04:36:24.161Z,9.38
2022-10-01T04:38:54.669Z,11.52
2022-10-01T04:41:25.493Z,13.30
2022-10-01T04:43:53.019Z,8.93
2022-10-01T04:46:20.465Z,8.40
2022-10-01T04:48:49.042Z,5.65
2022-10-01T04:51:16.982Z,5.50
2022-10-01T04:53:44.806Z,13.95
2022-10-01T04:56:12.294Z,13.55
2022-10-01T04:58:40.257Z,11.30
2022-10-01T05:01:07.919Z,8.38
2022-10-01T05:03:35.647Z,8.35
2022-10-01T05:06:03.741Z,9.07
2022-10-01T05:08:31.202Z,11.23
2022-10-01T05:11:00.412Z,11.63
2022-10-01T05:13:30.211Z,10.82
2022-10-01T05:15:58.130Z,10.57
2022-10-01T05:18:25.650Z,10.20
2022-10-01T05:20:52.978Z,9.10
2022-10-01T05:23:20.619Z,7.72
2022-10-01T05:25:48.037Z,9.50
2022-10-01T05:28:21.973Z,9.38
2022-10-01T05:30:51.347Z,12.10
2022-10-01T05:33:18.797Z,9.85
2022-10-01T05:35:47.460Z,10.98
2022-10-01T05:38:14.770Z,12.77
2022-10-01T05:40:46.232Z,12.02
2022-10-01T05:43:13.818Z,22.90
2022-10-01T05:45:41.640Z,8.85
2022-10-01T05:48:09.629Z,13.75
2022-10-01T05:50:42.385Z,32.00
2022-10-01T05:53:11.114Z,19.77
2022-10-01T05:55:38.673Z,10.77
2022-10-01T05:58:07.269Z,24.27
2022-10-01T06:00:35.049Z,8.68
2022-10-01T06:03:03.130Z,6.63
2022-10-01T06:05:31.404Z,9.45
2022-10-01T06:07:58.981Z,10.32
2022-10-01T06:10:28.174Z,10.90
2022-10-01T06:12:59.044Z,9.45
2022-10-01T06:15:26.422Z,9.13
2022-10-01T06:17:53.774Z,9.27
2022-10-01T06:20:21.628Z,8.77
2022-10-01T06:22:56.188Z,8.60
2022-10-01T06:25:23.876Z,6.20
2022-10-01T06:27:55.639Z,7.57
2022-10-01T06:30:23.173Z,8.27
2022-10-01T06:32:50.516Z,8.50
2022-10-01T06:35:20.300Z,8.77
2022-10-01T06:37:47.884Z,6.85
2022-10-01T06:40:15.214Z,7.55
2022-10-01T06:42:47.561Z,6.50
2022-10-01T06:45:15.853Z,8.25
2022-10-01T06:47:43.243Z,6.30
2022-10-01T06:50:10.688Z,6.55
2022-10-01T06:52:50.526Z,7.00
2022-10-01T06:55:18.678Z,7.85
2022-10-01T06:57:46.159Z,7.28
2022-10-01T07:00:14.582Z,7.60
2022-10-01T07:02:42.042Z,7.82
2022-10-01T07:05:09.746Z,9.07
2022-10-01T07:07:38.252Z,7.57
2022-10-01T07:10:06.921Z,7.63
2022-10-01T07:12:34.742Z,8.57
2022-10-01T07:15:02.452Z,8.05
2022-10-01T07:17:30.984Z,8.02
2022-10-01T07:19:58.315Z,8.00
2022-10-01T07:22:26.021Z,7.88
2022-10-01T07:24:53.437Z,10.00
2022-10-01T07:27:20.884Z,8.00
2022-10-01T07:29:48.242Z,7.93
2022-10-01T07:32:15.799Z,9.95
2022-10-01T07:34:43.201Z,10.77
2022-10-01T07:37:11.124Z,9.23
2022-10-01T07:39:38.506Z,10.30
2022-10-01T07:42:06.598Z,11.32
2022-10-01T07:44:33.923Z,12.40
2022-10-01T07:47:01.410Z,11.45
2022-10-01T07:49:28.826Z,11.85
2022-10-01T07:51:56.673Z,9.55
2022-10-01T07:54:24.095Z,11.10
2022-10-01T07:56:56.062Z,11.70
2022-10-01T07:59:24.529Z,12.63
2022-10-01T08:01:52.324Z,7.38
2022-10-01T08:04:39.002Z,12.93
2022-10-01T08:07:08.040Z,14.73
2022-10-01T08:09:35.831Z,8.38
2022-10-01T08:12:04.059Z,17.58
2022-10-01T08:14:31.577Z,16.70
2022-10-01T08:16:59.065Z,12.90
2022-10-01T08:19:26.535Z,8.60
2022-10-01T08:21:54.058Z,13.50
2022-10-01T08:24:21.432Z,14.25
2022-10-01T08:26:57.996Z,11.75
2022-10-01T08:29:25.326Z,12.30
2022-10-01T08:31:52.784Z,10.73
2022-10-01T08:34:20.175Z,11.60
2022-10-01T08:36:53.714Z,8.23
2022-10-01T08:39:21.396Z,11.73
2022-10-01T08:42:08.115Z,9.48
2022-10-01T08:44:45.978Z,8.02
2022-10-01T08:47:16.389Z,8.32
2022-10-01T08:49:52.772Z,6.75
2022-10-01T08:52:24.477Z,7.32
2022-10-01T08:54:52.795Z,8.07
2022-10-01T08:57:23.630Z,5.38
2022-10-01T09:00:01.693Z,9.75
2022-10-01T09:02:33.440Z,8.75
2022-10-01T09:05:06.464Z,7.88
2022-10-01T09:07:45.985Z,6.07
2022-10-01T09:10:31.952Z,6.35
2022-10-01T09:13:18.626Z,4.68
2022-10-01T09:15:45.972Z,6.00
2022-10-01T09:18:13.733Z,4.90
2022-10-01T09:20:53.652Z,4.28
2022-10-01T09:23:31.261Z,5.95
2022-10-01T09:25:59.656Z,5.28
2022-10-01T09:28:34.501Z,4.50
2022-10-01T09:31:15.168Z,3.90
2022-10-01T09:33:44.987Z,3.40
2022-10-01T09:36:38.840Z,6.68
2022-10-01T09:39:18.178Z,5.53
2022-10-01T09:41:46.360Z,4.85
2022-10-01T09:44:18.923Z,5.05
2022-10-01T09:46:47.768Z,3.58
2022-10-01T09:49:34.105Z,3.45
2022-10-01T09:52:08.211Z,5.60
2022-10-01T09:54:40.155Z,3.47
2022-10-01T09:57:10.276Z,3.25
2022-10-01T10:00:02.684Z,4.72
2022-10-01T10:02:44.618Z,3.97
2022-10-01T10:05:23.608Z,2.85
2022-10-01T10:07:52.497Z,2.20
2022-10-01T10:10:30.484Z,2.80
2022-10-01T10:13:03.327Z,3.05
2022-10-01T10:15:33.485Z,3.80
2022-10-01T10:18:08.448Z,3.05
2022-10-01T10:20:39.809Z,3.88
2022-10-01T10:23:17.630Z,4.40
2022-10-01T10:25:47.517Z,3.95
2022-10-01T10:28:24.906Z,2.70
2022-10-01T10:30:54.684Z,3.20
2022-10-01T10:33:23.800Z,7.28
2022-10-01T10:36:02.437Z,4.78
2022-10-01T10:38:32.051Z,2.60
2022-10-01T10:40:59.483Z,4.03
2022-10-01T10:43:30.364Z,3.17
2022-10-01T10:45:58.351Z,3.20
2022-10-01T10:48:29.445Z,3.08
2022-10-01T10:51:01.751Z,3.08
2022-10-01T10:53:33.464Z,2.20
2022-10-01T10:56:01.949Z,2.63
2022-10-01T10:58:33.539Z,3.83
2022-10-01T11:01:13.559Z,3.72
2022-10-01T11:03:47.070Z,2.92
2022-10-01T11:06:14.984Z,2.60
2022-10-01T11:08:43.524Z,2.58
2022-10-01T11:11:20.654Z,3.38
2022-10-01T11:13:49.680Z,3.00
2022-10-01T11:16:17.036Z,4.30
2022-10-01T11:18:56.000Z,1.92
2022-10-01T11:21:32.691Z,3.25
2022-10-01T11:24:09.181Z,2.30
2022-10-01T11:26:36.919Z,2.53
2022-10-01T11:29:04.483Z,4.95
2022-10-01T11:31:40.313Z,5.88
2022-10-01T11:34:13.797Z,3.38
2022-10-01T11:36:41.321Z,3.10
2022-10-01T11:39:14.612Z,6.32
2022-10-01T11:41:45.160Z,2.07
2022-10-01T11:44:19.115Z,3.72
2022-10-01T11:46:46.545Z,2.47
2022-10-01T11:49:23.151Z,2.95
2022-10-01T11:51:58.554Z,3.00
2022-10-01T11:54:28.648Z,1.67
2022-10-01T11:57:16.423Z,2.65
2022-10-01T11:59:50.044Z,1.65
2022-10-01T12:02:28.313Z,3.80
2022-10-01T12:05:00.801Z,2.55
2022-10-01T12:07:38.253Z,3.03
2022-10-01T12:10:06.904Z,2.15
2022-10-01T12:12:39.092Z,1.60
2022-10-01T12:15:07.098Z,2.05
2022-10-01T12:17:38.539Z,1.60
2022-10-01T12:20:10.153Z,2.67
2022-10-01T12:22:39.069Z,1.67
2022-10-01T12:25:11.643Z,2.70
2022-10-01T12:27:39.025Z,1.73
2022-10-01T12:30:16.023Z,2.83
2022-10-01T12:32:43.363Z,1.90
2022-10-01T12:35:19.072Z,1.55
2022-10-01T12:38:08.194Z,3.60
2022-10-01T12:40:40.838Z,1.80
2022-10-01T12:43:47.398Z,2.45
2022-10-01T12:46:53.674Z,1.85
2022-10-01T12:49:29.006Z,3.22
2022-10-01T12:52:14.216Z,3.75
2022-10-01T12:54:51.311Z,2.22
2022-10-01T12:57:37.119Z,3.35
2022-10-01T13:00:16.751Z,2.30
2022-10-01T13:02:52.568Z,3.90
2022-10-01T13:05:27.998Z,4.82
2022-10-01T13:08:07.077Z,3.05
2022-10-01T13:11:03.397Z,3.25
2022-10-01T13:13:34.753Z,5.25
2022-10-01T13:16:22.568Z,3.58
2022-10-01T13:19:44.972Z,3.88
2022-10-01T13:22:39.448Z,5.05
2022-10-01T13:25:25.275Z,2.20
2022-10-01T13:28:02.874Z,4.82
2022-10-01T13:31:02.605Z,4.32
2022-10-01T13:33:38.006Z,6.40
2022-10-01T13:36:06.943Z,3.75
2022-10-01T13:38:43.209Z,5.50
2022-10-01T13:41:23.939Z,2.60
2022-10-01T13:44:13.970Z,2.83
2022-10-01T13:47:18.955Z,2.63
2022-10-01T13:49:55.064Z,16.60
2022-10-01T13:52:22.201Z,3.60
2022-10-01T13:54:55.561Z,2.63
2022-10-01T13:57:27.495Z,3.53
2022-10-01T14:00:04.534Z,3.65
2022-10-01T14:02:39.235Z,3.83
2022-10-01T14:05:18.124Z,3.13
2022-10-01T14:07:48.308Z,2.72
2022-10-01T14:10:16.490Z,3.17
2022-10-01T14:13:05.455Z,2.80
2022-10-01T14:16:00.162Z,2.80
2022-10-01T14:21:06.167Z,3.85
2022-10-01T14:24:00.640Z,2.70
2022-10-01T14:26:49.173Z,2.08
2022-10-01T14:29:50.296Z,3.28
2022-10-01T14:32:41.131Z,2.15
2022-10-01T14:35:30.489Z,2.97
2022-10-01T14:38:04.701Z,2.72
2022-10-01T14:40:41.261Z,1.98
2022-10-01T14:43:26.419Z,1.90
2022-10-01T14:45:58.917Z,1.90
2022-10-01T14:48:37.855Z,1.58
2022-10-01T14:51:07.086Z,2.00
2022-10-01T14:53:37.318Z,1.60
2022-10-01T14:56:12.244Z,1.40
2022-10-01T14:58:44.396Z,2.33
2022-10-01T15:01:22.188Z,1.98
2022-10-01T15:03:50.794Z,2.58
2022-10-01T15:06:23.682Z,3.42
2022-10-01T15:08:53.040Z,1.33
2022-10-01T15:11:29.830Z,1.88
2022-10-01T15:14:06.235Z,1.40
2022-10-01T15:16:36.246Z,3.50
2022-10-01T15:19:08.291Z,2.15
2022-10-01T15:21:38.440Z,2.20
2022-10-01T15:24:19.180Z,1.83
2022-10-01T15:26:48.101Z,2.30
2022-10-01T15:29:16.642Z,4.30
2022-10-01T15:31:46.557Z,8.60
2022-10-01T15:34:16.599Z,2.30
2022-10-01T15:36:44.550Z,1.75
2022-10-01T15:39:25.009Z,2.00
2022-10-01T15:41:53.394Z,2.22
2022-10-01T15:44:39.256Z,2.17
2022-10-01T15:47:16.576Z,2.33
2022-10-01T15:50:09.621Z,2.58
2022-10-01T15:52:54.588Z,3.10
2022-10-01T15:55:31.647Z,3.08
2022-10-01T15:58:11.183Z,2.92
2022-10-01T16:00:58.382Z,2.65
2022-10-01T16:03:31.184Z,4.50
2022-10-01T16:06:01.837Z,2.17
2022-10-01T16:08:47.381Z,3.53
2022-10-01T16:11:18.874Z,4.32
2022-10-01T16:13:50.834Z,1.80
2022-10-01T16:16:24.025Z,3.13
2022-10-01T16:19:16.940Z,2.30
2022-10-01T16:21:43.929Z,2.40
2022-10-01T16:24:29.674Z,3.05
2022-10-01T16:27:01.177Z,2.97
2022-10-01T16:29:28.433Z,1.90
2022-10-01T16:31:56.045Z,4.00
2022-10-01T16:34:23.007Z,2.47
2022-10-01T16:36:50.337Z,3.90
2022-10-01T16:39:17.296Z,4.65
2022-10-01T16:41:56.543Z,3.97
2022-10-01T16:44:37.295Z,3.85
2022-10-01T16:47:04.302Z,4.63
2022-10-01T16:49:31.633Z,11.48
2022-10-01T16:51:59.243Z,6.38
2022-10-01T16:54:26.998Z,2.88
2022-10-01T16:56:55.303Z,2.72
2022-10-01T16:59:23.676Z,2.20
2022-10-01T17:01:54.728Z,3.58
2022-10-01T17:04:22.407Z,2.10
2022-10-01T17:06:49.390Z,2.08
2022-10-01T17:09:16.331Z,3.05
2022-10-01T17:11:43.937Z,4.03
2022-10-01T17:14:19.533Z,3.45
2022-10-01T17:16:48.335Z,2.80
2022-10-01T17:19:15.784Z,2.63
2022-10-01T17:21:42.865Z,3.25
2022-10-01T17:24:10.933Z,3.53
2022-10-01T17:26:45.250Z,3.83
2022-10-01T17:29:12.974Z,2.70
2022-10-01T17:31:40.896Z,2.70
2022-10-01T17:34:08.387Z,2.42
2022-10-01T17:36:35.493Z,2.90
2022-10-01T17:39:02.832Z,3.10
2022-10-01T17:41:29.858Z,2.88
2022-10-01T17:43:58.066Z,3.20
2022-10-01T17:46:25.046Z,2.58
2022-10-01T17:48:52.176Z,2.30
2022-10-01T17:51:19.848Z,2.67
2022-10-01T17:53:47.925Z,2.50
2022-10-01T17:56:17.500Z,2.80
2022-10-01T17:58:45.870Z,2.80
2022-10-01T18:01:22.690Z,3.13
2022-10-01T18:03:55.447Z,2.40
2022-10-01T18:06:24.306Z,2.00
2022-10-01T18:08:55.673Z,2.30
2022-10-01T18:11:25.052Z,2.20
2022-10-01T18:13:52.968Z,2.85
2022-10-01T18:16:20.707Z,3.58
2022-10-01T18:19:51.817Z,4.45
2022-10-01T18:21:35.907Z,2.80
2022-10-01T18:26:50.909Z,4.30
2022-10-01T18:29:23.420Z,3.88
2022-10-01T18:32:04.894Z,6.20
2022-10-01T18:34:54.446Z,3.50
2022-10-01T18:37:37.542Z,2.97
2022-10-01T18:40:18.789Z,3.28
2022-10-01T18:43:20.546Z,2.03
2022-10-01T18:46:00.498Z,2.58
2022-10-01T18:48:47.382Z,2.65
2022-10-01T18:51:35.095Z,2.80
2022-10-01T18:54:47.134Z,2.33
2022-10-01T18:57:44.763Z,2.10
2022-10-01T19:00:13.422Z,4.38
2022-10-01T19:02:59.210Z,3.40
2022-10-01T19:05:46.450Z,1.52
2022-10-01T19:08:20.816Z,2.13
2022-10-01T19:11:17.932Z,2.10
2022-10-01T19:14:21.653Z,2.78
2022-10-01T19:17:04.048Z,2.53
2022-10-01T19:19:42.876Z,2.58
2022-10-01T19:22:35.828Z,5.10
2022-10-01T19:25:27.472Z,2.22
2022-10-01T19:28:19.729Z,2.55
2022-10-01T19:31:13.760Z,2.35
2022-10-01T19:33:56.233Z,2.10
2022-10-01T19:36:35.152Z,3.38
2022-10-01T19:39:08.937Z,2.00
2022-10-01T19:41:53.171Z,2.10
2022-10-01T19:44:42.550Z,3.15
2022-10-01T19:47:38.574Z,2.45
2022-10-01T19:50:20.269Z,3.00
2022-10-01T19:52:51.511Z,2.90
2022-10-01T19:55:20.936Z,2.15
2022-10-01T19:57:48.478Z,3.63
2022-10-01T20:00:21.647Z,1.88
2022-10-01T20:02:57.105Z,2.08
2022-10-01T20:05:53.074Z,2.47
2022-10-01T20:08:36.251Z,2.15
2022-10-01T20:11:41.013Z,2.00
2022-10-01T20:15:02.877Z,2.33
2022-10-01T20:17:33.161Z,3.05
2022-10-01T20:20:13.091Z,2.25
2022-10-01T20:22:43.976Z,3.08
2022-10-01T20:25:23.949Z,2.00
2022-10-01T20:28:09.539Z,1.80
2022-10-01T20:30:58.213Z,2.10
2022-10-01T20:33:47.897Z,1.70
2022-10-01T20:36:19.017Z,3.10
2022-10-01T20:38:57.494Z,2.88
2022-10-01T20:41:25.590Z,3.95
2022-10-01T20:44:02.122Z,1.70
2022-10-01T20:46:45.492Z,1.50
2022-10-01T20:49:21.603Z,1.45
2022-10-01T20:52:00.566Z,1.60
2022-10-01T20:54:33.953Z,1.63
2022-10-01T20:57:15.837Z,2.80
2022-10-01T20:59:45.924Z,4.50
2022-10-01T21:02:30.629Z,2.15
2022-10-01T21:05:09.189Z,2.85
2022-10-01T21:07:52.803Z,4.22
2022-10-01T21:10:38.932Z,3.03
2022-10-01T21:13:18.085Z,4.43
2022-10-01T21:16:06.195Z,2.45
2022-10-01T21:18:47.941Z,2.17
2022-10-01T21:21:36.689Z,2.13
2022-10-01T21:24:17.171Z,2.15
2022-10-01T21:27:40.351Z,2.65
2022-10-01T21:30:20.481Z,1.85
2022-10-01T21:33:37.839Z,1.90
2022-10-01T21:36:23.705Z,2.10
2022-10-01T21:38:58.867Z,2.15
2022-10-01T21:41:41.779Z,2.20
2022-10-01T21:44:33.669Z,5.80
2022-10-01T21:47:34.309Z,1.75
2022-10-01T21:50:18.101Z,1.42
2022-10-01T21:53:06.880Z,1.77
2022-10-01T21:55:41.398Z,2.50
2022-10-01T21:58:49.485Z,3.25
2022-10-01T22:01:54.501Z,2.35
2022-10-01T22:04:32.084Z,2.65
2022-10-01T22:07:36.349Z,1.58
2022-10-01T22:10:03.691Z,2.70
2022-10-01T22:12:33.476Z,3.17
2022-10-01T22:15:01.518Z,2.28
2022-10-01T22:17:33.078Z,2.58
2022-10-01T22:20:02.917Z,1.60
2022-10-01T22:22:33.892Z,2.85
2022-10-01T22:25:02.528Z,2.40
2022-10-01T22:27:33.157Z,1.35
2022-10-01T22:30:09.049Z,1.50
2022-10-01T22:32:47.100Z,1.38
2022-10-01T22:35:19.859Z,1.88
2022-10-01T22:37:53.780Z,4.07
2022-10-01T22:41:06.052Z,1.58
2022-10-01T22:43:33.494Z,2.38
2022-10-01T22:46:00.861Z,2.75
2022-10-01T22:48:45.722Z,2.25
2022-10-01T22:51:13.095Z,1.48
2022-10-01T22:53:54.357Z,1.30
2022-10-01T22:56:32.682Z,2.65
2022-10-01T22:59:04.857Z,1.20
2022-10-01T23:02:10.342Z,0.95
2022-10-01T23:05:23.663Z,1.13
2022-10-01T23:07:56.769Z,1.10
2022-10-01T23:10:48.479Z,1.10
2022-10-01T23:13:34.061Z,1.73
2022-10-01T23:16:16.148Z,0.90
2022-10-01T23:19:03.297Z,0.88
2022-10-01T23:21:51.719Z,1.20
2022-10-01T23:24:37.969Z,0.88
2022-10-01T23:27:25.861Z,0.80
2022-10-01T23:30:04.623Z,1.02
2022-10-01T23:32:41.604Z,1.00
2022-10-01T23:35:17.384Z,0.73
2022-10-01T23:38:22.559Z,1.67
2022-10-01T23:43:35.816Z,0.70
2022-10-01T23:46:13.081Z,0.70
2022-10-01T23:48:51.919Z,0.75
2022-10-01T23:51:26.776Z,0.85
2022-10-01T23:54:04.712Z,0.70
2022-10-01T23:56:49.926Z,1.42
2022-10-01T23:59:43.228Z,1.17
